Pagrindinis puslapis
METAR-TAF:

METAR-TAF

Oro uostai :

Karsas, Turkija

platuma: 40-36N, ilguma: 043-05E, Aukštis: 1775 m

Dabartinis oras

Ataskaita buvo paskelbta 35 minutes, ne 17:50 UTC
Vėjas 14 kt iš Rytų/Šiaurės Rytų
Temperatūra 12°C
Drėgmė 71%
Slėgis 1024 hPa
Matomumas 10 km arba daugiau
Išsisklaidę debesys ne aukštis 3500 ft

METAR: LTCF 151750Z 06014KT 9999 SCT035 12/07 Q1024

Laikas: 21:25 (18:25 UTC)

Prognozė

Ataskaita buvo paskelbta 1 valandą ir 45 minutes, ne 16:40 UTC
Prognozė galioja nuo 15 metu 18 UTC su 16 metu 03 UTC
Vėjas 12 kt iš Rytų/Šiaurės Rytų
Matomumas 10 km arba daugiau
Su prošvaistėmis ne aukštis 3500 ft
Laikinai
nuo 15 metu 18 UTC su 15 metu 22 UTC
Mažai debesys ne aukštis 3000 ft, Liūtiniai kamuoliniai debesys.
Su prošvaistėmis ne aukštis 3500 ft
perkūnija, lietus
Laikinai
nuo 16 metu 00 UTC su 16 metu 03 UTC
lietus

TAF: LTCF 151640Z 1518/1603 07012KT 9999 BKN035 TEMPO 1518/1522 -TSRA FEW030CB BKN035 TEMPO 1600/1603 -SHRA

Orai ataskaitas ir orų prognozės (METAR, TAF).

turimą stotys yra geltonos ir raudonos taškus žemėlapyje.

Perkelti pele per norėdami pamatyti stoties vardą.

Tada spustelėkite, norėdami matyti oro stebėjimo ir prognozės.

Norėdami pakeisti žemėlapį: spustelėkite ant žalios mygtukų su juodo kryžiaus žemyn,; žalią mygtuką su brūkšneliu, jei norite nutolinti; arba žalių rodyklių gretimoms žemėlapius.


METAR-TAF: